createdAt,value
2019-01-03T00:01:09.876Z,-0.60
2019-01-03T00:03:55.666Z,-0.60
2019-01-03T00:06:41.679Z,-0.70
2019-01-03T00:09:25.761Z,-0.70
2019-01-03T00:12:11.202Z,-0.80
2019-01-03T00:15:13.269Z,-0.80
2019-01-03T00:18:12.189Z,-0.80
2019-01-03T00:20:57.664Z,-0.90
2019-01-03T00:23:43.035Z,-0.90
2019-01-03T00:26:29.974Z,-1.00
2019-01-03T00:29:34.995Z,-1.00
2019-01-03T00:32:31.100Z,-1.00
2019-01-03T00:35:16.753Z,-1.00
2019-01-03T00:38:02.552Z,-1.10
2019-01-03T00:41:02.882Z,-1.10
2019-01-03T00:44:05.214Z,-1.10
2019-01-03T00:46:58.861Z,-1.10
2019-01-03T00:49:44.548Z,-1.10
2019-01-03T00:52:40.203Z,-1.20
2019-01-03T00:55:27.452Z,-1.20
2019-01-03T00:58:14.912Z,-1.20
2019-01-03T01:01:05.582Z,-1.30
2019-01-03T01:03:50.935Z,-1.30
2019-01-03T01:06:46.610Z,-1.30
2019-01-03T01:09:42.654Z,-1.30
2019-01-03T01:12:28.203Z,-1.30
2019-01-03T01:15:13.475Z,-1.30
2019-01-03T01:18:12.180Z,-1.40
2019-01-03T01:20:59.456Z,-1.40
2019-01-03T01:23:52.757Z,-1.40
2019-01-03T01:26:39.839Z,-1.40
2019-01-03T01:29:32.796Z,-1.40
2019-01-03T01:32:22.594Z,-1.40
2019-01-03T01:35:21.510Z,-1.40
2019-01-03T01:38:04.665Z,-1.50
2019-01-03T01:40:59.196Z,-1.50
2019-01-03T01:44:01.471Z,-1.50
2019-01-03T01:46:47.273Z,-1.50
2019-01-03T01:49:37.496Z,-1.50
2019-01-03T01:52:39.636Z,-1.50
2019-01-03T01:55:25.267Z,-1.50
2019-01-03T01:58:12.271Z,-1.50
2019-01-03T02:01:14.662Z,-1.50
2019-01-03T02:04:08.552Z,-1.40
2019-01-03T02:07:03.380Z,-1.40
2019-01-03T02:09:49.398Z,-1.40
2019-01-03T02:12:36.704Z,-1.40
2019-01-03T02:15:22.578Z,-1.50
2019-01-03T02:18:05.308Z,-1.50
2019-01-03T02:20:49.635Z,-1.50
2019-01-03T02:23:42.831Z,-1.50
2019-01-03T02:26:32.136Z,-1.50
2019-01-03T02:29:14.548Z,-1.50
2019-01-03T02:32:13.750Z,-1.60
2019-01-03T02:35:07.054Z,-1.60
2019-01-03T02:37:59.598Z,-1.70
2019-01-03T02:41:01.868Z,-1.70
2019-01-03T02:43:57.485Z,-1.70
2019-01-03T02:46:50.228Z,-1.70
2019-01-03T02:49:55.616Z,-1.70
2019-01-03T02:52:42.821Z,-1.60
2019-01-03T02:55:38.643Z,-1.60
2019-01-03T02:58:28.748Z,-1.60
2019-01-03T03:01:22.895Z,-1.60
2019-01-03T03:04:05.154Z,-1.60
2019-01-03T03:06:57.915Z,-1.60
2019-01-03T03:09:44.872Z,-1.70
2019-01-03T03:12:30.542Z,-1.60
2019-01-03T03:15:16.520Z,-1.60
2019-01-03T03:18:03.424Z,-1.50
2019-01-03T03:20:59.527Z,-1.50
2019-01-03T03:23:45.269Z,-1.60
2019-01-03T03:26:33.272Z,-1.60
2019-01-03T03:29:29.232Z,-1.50
2019-01-03T03:32:22.126Z,-1.60
2019-01-03T03:35:20.915Z,-1.60
2019-01-03T03:38:06.434Z,-1.60
2019-01-03T03:40:52.395Z,-1.70
2019-01-03T03:43:38.152Z,-1.70
2019-01-03T03:46:28.223Z,-1.70
2019-01-03T03:49:15.404Z,-1.70
2019-01-03T03:52:08.625Z,-1.70
2019-01-03T03:54:54.078Z,-1.70
2019-01-03T03:57:46.591Z,-1.70
2019-01-03T04:00:39.473Z,-1.70
2019-01-03T04:03:25.160Z,-1.70
2019-01-03T04:06:10.976Z,-1.80
2019-01-03T04:08:57.517Z,-1.80
2019-01-03T04:11:50.510Z,-1.80
2019-01-03T04:14:36.159Z,-1.80
2019-01-03T04:17:21.958Z,-1.90
2019-01-03T04:20:08.920Z,-1.90
2019-01-03T04:23:11.346Z,-1.90
2019-01-03T04:26:10.530Z,-2.00
2019-01-03T04:28:56.585Z,-2.10
2019-01-03T04:31:42.249Z,-2.10
2019-01-03T04:34:28.600Z,-2.20
2019-01-03T04:37:12.166Z,-2.20
2019-01-03T04:39:57.826Z,-2.20
2019-01-03T04:42:43.620Z,-2.30
2019-01-03T04:45:29.468Z,-2.30
2019-01-03T04:48:08.847Z,-2.30
2019-01-03T04:50:49.634Z,-2.40
2019-01-03T04:53:36.631Z,-2.40
2019-01-03T04:56:38.923Z,-2.40
2019-01-03T04:59:24.681Z,-2.50
2019-01-03T05:02:26.685Z,-2.50
2019-01-03T05:05:16.869Z,-2.50
2019-01-03T05:08:02.783Z,-2.60
2019-01-03T05:10:42.580Z,-2.60
2019-01-03T05:13:41.625Z,-2.60
2019-01-03T05:16:40.478Z,-2.60
2019-01-03T05:19:39.531Z,-2.70
2019-01-03T05:22:26.779Z,-2.70
2019-01-03T05:25:10.999Z,-2.70
2019-01-03T05:28:16.127Z,-2.70
2019-01-03T05:31:04.186Z,-2.80
2019-01-03T05:34:00.633Z,-2.80
2019-01-03T05:36:47.662Z,-2.80
2019-01-03T05:39:40.621Z,-2.80
2019-01-03T05:42:26.916Z,-2.80
2019-01-03T05:45:23.591Z,-2.80
2019-01-03T05:48:28.963Z,-2.80
2019-01-03T05:51:22.450Z,-2.90
2019-01-03T05:54:08.675Z,-2.90
2019-01-03T05:56:52.472Z,-2.90
2019-01-03T05:59:54.905Z,-2.90
2019-01-03T06:02:43.225Z,-3.00
2019-01-03T06:05:29.387Z,-2.90
2019-01-03T06:08:15.274Z,-2.90
2019-01-03T06:10:53.674Z,-2.90
2019-01-03T06:13:34.291Z,-2.80
2019-01-03T06:16:21.370Z,-2.80
2019-01-03T06:19:23.072Z,-2.80
2019-01-03T06:22:19.279Z,-2.80
2019-01-03T06:25:12.474Z,-2.80
2019-01-03T06:28:11.890Z,-2.70
2019-01-03T06:31:04.666Z,-2.70
2019-01-03T06:33:45.763Z,-2.70
2019-01-03T06:36:29.149Z,-2.70
2019-01-03T06:39:15.034Z,-2.70
2019-01-03T06:42:08.075Z,-2.60
2019-01-03T06:44:55.281Z,-2.60
2019-01-03T06:47:47.529Z,-2.60
2019-01-03T06:50:33.216Z,-2.60
2019-01-03T06:53:20.208Z,-2.60
2019-01-03T06:56:06.135Z,-2.60
2019-01-03T06:58:53.170Z,-2.60
2019-01-03T07:01:37.061Z,-2.60
2019-01-03T07:04:22.346Z,-2.60
2019-01-03T07:07:16.632Z,-2.60
2019-01-03T07:10:09.487Z,-2.60
2019-01-03T07:12:55.515Z,-2.60
2019-01-03T07:15:51.113Z,-2.60
2019-01-03T07:18:36.489Z,-2.60
2019-01-03T07:21:29.577Z,-2.60
2019-01-03T07:24:20.848Z,-2.60
2019-01-03T07:27:10.997Z,-2.60
2019-01-03T07:30:13.104Z,-2.60
2019-01-03T07:32:58.667Z,-2.60
2019-01-03T07:35:44.211Z,-2.60
2019-01-03T07:38:30.649Z,-2.60
2019-01-03T07:41:17.733Z,-2.50
2019-01-03T07:44:03.384Z,-2.50
2019-01-03T07:47:05.232Z,-2.50
2019-01-03T07:49:51.987Z,-2.50
2019-01-03T07:52:40.174Z,-2.40
2019-01-03T07:55:27.303Z,-2.40
2019-01-03T07:58:15.516Z,-2.30
2019-01-03T08:01:09.609Z,-2.30
2019-01-03T08:03:55.303Z,-2.20
2019-01-03T08:07:00.860Z,-2.20
2019-01-03T08:09:59.949Z,-2.10
2019-01-03T08:12:49.985Z,-2.00
2019-01-03T08:15:52.093Z,-2.00
2019-01-03T08:18:31.558Z,-2.00
2019-01-03T08:21:18.781Z,-1.90
2019-01-03T08:24:11.748Z,-1.90
2019-01-03T08:26:57.884Z,-1.80
2019-01-03T08:29:59.663Z,-1.80
2019-01-03T08:32:46.799Z,-1.80
2019-01-03T08:35:41.805Z,-1.70
2019-01-03T08:38:38.082Z,-1.70
2019-01-03T08:41:32.516Z,-1.70
2019-01-03T08:44:37.887Z,-1.60
2019-01-03T08:47:37.374Z,-1.60
2019-01-03T08:50:27.083Z,-1.60
2019-01-03T08:53:17.934Z,-1.50
2019-01-03T08:56:03.518Z,-1.50
2019-01-03T08:58:52.526Z,-1.50
2019-01-03T09:01:33.288Z,-1.40
2019-01-03T09:04:19.032Z,-1.40
2019-01-03T09:07:09.207Z,-1.40
2019-01-03T09:09:54.933Z,-1.30
2019-01-03T09:12:40.753Z,-1.30
2019-01-03T09:15:30.929Z,-1.20
2019-01-03T09:18:32.679Z,-1.20
2019-01-03T09:21:18.583Z,-1.20
2019-01-03T09:24:14.145Z,-1.10
2019-01-03T09:27:01.150Z,-1.00
2019-01-03T09:29:47.219Z,-1.00
2019-01-03T09:32:49.650Z,-0.90
2019-01-03T09:35:36.669Z,-0.90
2019-01-03T09:38:23.927Z,-0.80
2019-01-03T09:41:19.856Z,-0.80
2019-01-03T09:44:05.355Z,-0.70
2019-01-03T09:46:38.519Z,-0.70
2019-01-03T09:49:05.924Z,-0.70
2019-01-03T09:51:33.503Z,-0.60
2019-01-03T09:54:00.917Z,-0.60
2019-01-03T09:56:28.624Z,-0.50
2019-01-03T09:58:56.191Z,-0.50
2019-01-03T10:01:23.725Z,-0.50
2019-01-03T10:03:52.042Z,-0.40
2019-01-03T10:06:19.534Z,-0.40
2019-01-03T10:08:46.836Z,-0.40
2019-01-03T10:11:14.290Z,-0.30
2019-01-03T10:13:41.755Z,-0.30
2019-01-03T10:16:09.311Z,-0.30
2019-01-03T10:18:36.786Z,-0.20
2019-01-03T10:21:04.162Z,-0.20
2019-01-03T10:23:31.880Z,-0.20
2019-01-03T10:25:59.204Z,-0.10
2019-01-03T10:28:26.839Z,-0.10
2019-01-03T10:30:54.322Z,0.00
2019-01-03T10:33:22.072Z,0.00
2019-01-03T10:35:49.517Z,0.00
2019-01-03T10:38:20.956Z,0.10
2019-01-03T10:40:46.769Z,0.10
2019-01-03T10:43:14.196Z,0.10
2019-01-03T10:45:41.667Z,0.10
2019-01-03T10:51:44.177Z,0.10
2019-01-03T10:54:11.827Z,0.20
2019-01-03T10:56:39.199Z,0.20
2019-01-03T10:59:07.585Z,0.30
2019-01-03T11:01:35.414Z,0.30
2019-01-03T11:04:02.862Z,0.30
2019-01-03T11:06:30.475Z,0.30
2019-01-03T11:08:58.076Z,0.40
2019-01-03T11:11:25.442Z,0.40
2019-01-03T11:13:52.747Z,0.40
2019-01-03T11:16:20.143Z,0.50
2019-01-03T11:18:47.602Z,0.50
2019-01-03T11:21:16.060Z,0.60
2019-01-03T11:23:43.445Z,0.60
2019-01-03T11:26:10.948Z,0.60
2019-01-03T11:28:38.237Z,0.60
2019-01-03T11:31:05.806Z,0.70
2019-01-03T11:33:33.333Z,0.70
2019-01-03T11:36:00.758Z,0.70
2019-01-03T11:38:28.417Z,0.70
2019-01-03T11:40:56.315Z,0.80
2019-01-03T11:43:23.686Z,0.80
2019-01-03T11:45:51.385Z,0.80
2019-01-03T11:48:18.835Z,0.80
2019-01-03T11:50:46.327Z,0.80
2019-01-03T11:53:13.744Z,0.90
2019-01-03T11:55:41.134Z,0.90
2019-01-03T11:58:08.507Z,0.90
2019-01-03T12:00:35.958Z,1.00
2019-01-03T12:03:03.378Z,1.00
2019-01-03T12:05:30.642Z,1.00
2019-01-03T12:07:58.177Z,1.10
2019-01-03T12:10:26.165Z,1.10
2019-01-03T12:12:53.551Z,1.10
2019-01-03T12:15:21.012Z,1.10
2019-01-03T12:17:48.576Z,1.10
2019-01-03T12:20:16.032Z,1.20
2019-01-03T12:22:43.672Z,1.20
2019-01-03T12:25:11.093Z,1.20
2019-01-03T12:27:38.861Z,1.20
2019-01-03T12:30:07.988Z,1.30
2019-01-03T12:32:35.633Z,1.30
2019-01-03T12:35:03.156Z,1.30
2019-01-03T12:37:30.555Z,1.30
2019-01-03T12:39:57.925Z,1.30
2019-01-03T12:42:25.445Z,1.30
2019-01-03T12:44:52.965Z,1.40
2019-01-03T12:47:20.450Z,1.30
2019-01-03T12:49:47.871Z,1.40
2019-01-03T12:52:15.494Z,1.40
2019-01-03T12:54:43.379Z,1.40
2019-01-03T12:57:11.103Z,1.40
2019-01-03T12:59:38.895Z,1.30
2019-01-03T13:02:06.873Z,1.30
2019-01-03T13:04:34.262Z,1.30
2019-01-03T13:07:01.672Z,1.30
2019-01-03T13:09:29.215Z,1.30
2019-01-03T13:11:56.716Z,1.30
2019-01-03T13:14:24.402Z,1.30
2019-01-03T13:16:51.671Z,1.30
2019-01-03T13:19:19.122Z,1.30
2019-01-03T13:21:46.529Z,1.30
2019-01-03T13:24:13.956Z,1.30
2019-01-03T13:26:41.878Z,1.30
2019-01-03T13:29:09.376Z,1.30
2019-01-03T13:31:37.014Z,1.30
2019-01-03T13:34:04.635Z,1.30
2019-01-03T13:36:32.097Z,1.30
2019-01-03T13:38:59.638Z,1.30
2019-01-03T13:41:27.544Z,1.30
2019-01-03T13:43:55.182Z,1.30
2019-01-03T13:46:22.729Z,1.30
2019-01-03T13:48:50.164Z,1.30
2019-01-03T13:51:17.544Z,1.30
2019-01-03T13:53:44.984Z,1.30
2019-01-03T13:56:12.463Z,1.30
2019-01-03T13:58:40.015Z,1.30
2019-01-03T14:01:07.758Z,1.40
2019-01-03T14:03:35.642Z,1.30
2019-01-03T14:06:04.077Z,1.30
2019-01-03T14:08:31.807Z,1.40
2019-01-03T14:10:59.251Z,1.30
2019-01-03T14:13:26.633Z,1.40
2019-01-03T14:15:54.050Z,1.40
2019-01-03T14:18:21.841Z,1.40
2019-01-03T14:20:49.130Z,1.30
2019-01-03T14:23:16.580Z,1.30
2019-01-03T14:25:44.071Z,1.40
2019-01-03T14:28:11.413Z,1.40
2019-01-03T14:30:38.806Z,1.40
2019-01-03T14:33:06.295Z,1.40
2019-01-03T14:35:34.174Z,1.40
2019-01-03T14:38:01.863Z,1.40
2019-01-03T14:40:29.626Z,1.40
2019-01-03T14:42:57.015Z,1.40
2019-01-03T14:45:24.968Z,1.30
2019-01-03T14:47:52.411Z,1.30
2019-01-03T14:50:20.299Z,1.30
2019-01-03T14:52:47.964Z,1.30
2019-01-03T14:55:15.466Z,1.30
2019-01-03T14:57:43.205Z,1.40
2019-01-03T15:00:13.345Z,1.30
2019-01-03T15:02:40.636Z,1.40
2019-01-03T15:05:13.784Z,1.40
2019-01-03T15:07:37.870Z,1.40
2019-01-03T15:10:05.805Z,1.40
2019-01-03T15:12:33.592Z,1.40
2019-01-03T15:15:01.062Z,1.40
2019-01-03T15:17:28.707Z,1.40
2019-01-03T15:19:56.119Z,1.40
2019-01-03T15:22:23.590Z,1.30
2019-01-03T15:24:51.088Z,1.30
2019-01-03T15:27:18.548Z,1.30
2019-01-03T15:29:45.955Z,1.30
2019-01-03T15:32:13.770Z,1.40
2019-01-03T15:34:41.040Z,1.30
2019-01-03T15:37:08.509Z,1.30
2019-01-03T15:39:35.909Z,1.30
2019-01-03T15:42:03.412Z,1.30
2019-01-03T15:44:30.780Z,1.30
2019-01-03T15:46:58.223Z,1.30
2019-01-03T15:49:25.834Z,1.30
2019-01-03T15:51:53.361Z,1.20
2019-01-03T15:54:20.967Z,1.20
2019-01-03T15:56:48.466Z,1.20
2019-01-03T15:59:15.877Z,1.20
2019-01-03T16:01:44.026Z,1.30
2019-01-03T16:04:11.493Z,1.20
2019-01-03T16:06:38.770Z,1.20
2019-01-03T16:09:06.283Z,1.20
2019-01-03T16:11:33.895Z,1.10
2019-01-03T16:14:01.703Z,1.10
2019-01-03T16:16:29.567Z,1.20
2019-01-03T16:18:57.009Z,1.20
2019-01-03T16:21:24.402Z,1.10
2019-01-03T16:23:51.835Z,1.20
2019-01-03T16:26:19.317Z,1.20
2019-01-03T16:28:46.761Z,1.20
2019-01-03T16:31:14.267Z,1.20
2019-01-03T16:33:41.719Z,1.10
2019-01-03T16:36:09.101Z,1.20
2019-01-03T16:38:36.575Z,1.20
2019-01-03T16:41:03.934Z,1.20
2019-01-03T16:43:32.273Z,1.20
2019-01-03T16:45:59.717Z,1.20
2019-01-03T16:48:27.104Z,1.20
2019-01-03T16:50:54.843Z,1.20
2019-01-03T16:53:22.363Z,1.20
2019-01-03T16:55:49.757Z,1.20
2019-01-03T16:58:17.203Z,1.20
2019-01-03T17:00:44.635Z,1.20
2019-01-03T17:03:12.329Z,1.20
2019-01-03T17:05:39.824Z,1.10
2019-01-03T17:08:07.223Z,1.10
2019-01-03T17:10:34.941Z,1.10
2019-01-03T17:13:02.265Z,1.20
2019-01-03T17:15:29.664Z,1.20
2019-01-03T17:17:57.209Z,1.10
2019-01-03T17:20:24.726Z,1.20
2019-01-03T17:22:52.476Z,1.20
2019-01-03T17:25:19.775Z,1.20
2019-01-03T17:27:47.593Z,1.20
2019-01-03T17:30:15.369Z,1.10
2019-01-03T17:32:42.776Z,1.10
2019-01-03T17:35:11.408Z,1.10
2019-01-03T17:37:40.035Z,1.20
2019-01-03T17:40:09.600Z,1.10
2019-01-03T17:42:38.070Z,1.20
2019-01-03T17:45:07.726Z,1.20
2019-01-03T17:47:35.150Z,1.10
2019-01-03T17:50:02.758Z,1.20
2019-01-03T17:52:30.270Z,1.20
2019-01-03T17:54:57.689Z,1.20
2019-01-03T17:57:25.467Z,1.20
2019-01-03T17:59:52.953Z,1.10
2019-01-03T18:02:20.652Z,1.10
2019-01-03T18:04:48.068Z,1.10
2019-01-03T18:07:15.581Z,1.10
2019-01-03T18:09:43.754Z,1.10
2019-01-03T18:12:11.259Z,1.10
2019-01-03T18:14:39.213Z,1.10
2019-01-03T18:17:06.612Z,1.10
2019-01-03T18:19:34.437Z,1.10
2019-01-03T18:22:02.139Z,1.10
2019-01-03T18:24:30.226Z,1.10
2019-01-03T18:26:57.647Z,1.10
2019-01-03T18:29:25.341Z,1.20
2019-01-03T18:31:52.812Z,1.20
2019-01-03T18:34:20.455Z,1.20
2019-01-03T18:36:47.970Z,1.20
2019-01-03T18:39:15.352Z,1.10
2019-01-03T18:41:42.855Z,1.20
2019-01-03T18:44:10.532Z,1.20
2019-01-03T18:46:38.361Z,1.20
2019-01-03T18:49:06.984Z,1.20
2019-01-03T18:51:34.465Z,1.20
2019-01-03T18:54:01.915Z,1.20
2019-01-03T18:56:29.451Z,1.20
2019-01-03T18:58:57.009Z,1.20
2019-01-03T19:01:24.395Z,1.20
2019-01-03T19:03:51.811Z,1.20
2019-01-03T19:06:19.606Z,1.20
2019-01-03T19:08:46.883Z,1.20
2019-01-03T19:11:14.388Z,1.20
2019-01-03T19:13:41.704Z,1.20
2019-01-03T19:16:09.447Z,1.30
2019-01-03T19:18:36.910Z,1.30
2019-01-03T19:21:04.383Z,1.30
2019-01-03T19:23:32.399Z,1.30
2019-01-03T19:26:00.256Z,1.30
2019-01-03T19:28:27.731Z,1.30
2019-01-03T19:30:55.562Z,1.30
2019-01-03T19:33:23.120Z,1.30
2019-01-03T19:35:50.613Z,1.30
2019-01-03T19:38:19.298Z,1.20
2019-01-03T19:40:46.812Z,1.30
2019-01-03T19:43:14.640Z,1.30
2019-01-03T19:45:42.119Z,1.30
2019-01-03T19:48:09.634Z,1.30
2019-01-03T19:50:37.127Z,1.30
2019-01-03T19:56:28.646Z,1.30
2019-01-03T19:58:56.351Z,1.30
2019-01-03T20:01:23.909Z,1.30
2019-01-03T20:03:51.417Z,1.30
2019-01-03T20:06:18.876Z,1.30
2019-01-03T20:08:46.836Z,1.30
2019-01-03T20:11:14.127Z,1.30
2019-01-03T20:13:41.710Z,1.30
2019-01-03T20:16:09.172Z,1.30
2019-01-03T20:18:36.639Z,1.30
2019-01-03T20:21:05.277Z,1.30
2019-01-03T20:23:33.081Z,1.40
2019-01-03T20:26:00.771Z,1.30
2019-01-03T20:28:28.457Z,1.30
2019-01-03T20:30:57.271Z,1.40
2019-01-03T20:33:26.028Z,1.30
2019-01-03T20:35:54.061Z,1.30
2019-01-03T20:38:22.126Z,1.30
2019-01-03T20:40:49.829Z,1.30
2019-01-03T20:43:17.292Z,1.30
2019-01-03T20:45:44.591Z,1.30
2019-01-03T20:48:12.042Z,1.30
2019-01-03T20:50:39.450Z,1.40
2019-01-03T20:53:07.255Z,1.30
2019-01-03T20:55:34.710Z,1.30
2019-01-03T20:58:02.347Z,1.30
2019-01-03T21:00:30.630Z,1.30
2019-01-03T21:02:58.073Z,1.30
2019-01-03T21:05:25.634Z,1.30
2019-01-03T21:07:54.172Z,1.30
2019-01-03T21:10:21.632Z,1.30
2019-01-03T21:12:49.134Z,1.30
2019-01-03T21:15:18.063Z,1.30
2019-01-03T21:17:45.587Z,1.30
2019-01-03T21:20:13.975Z,1.30
2019-01-03T21:22:41.397Z,1.30
2019-01-03T21:25:10.285Z,1.30
2019-01-03T21:27:37.950Z,1.30
2019-01-03T21:30:08.323Z,1.30
2019-01-03T21:32:35.758Z,1.30
2019-01-03T21:35:03.822Z,1.30
2019-01-03T21:37:31.271Z,1.30
2019-01-03T21:39:58.680Z,1.30
2019-01-03T21:42:26.129Z,1.30
2019-01-03T21:44:53.769Z,1.30
2019-01-03T21:47:22.977Z,1.30
2019-01-03T21:49:50.835Z,1.30
2019-01-03T21:52:18.263Z,1.40
2019-01-03T21:54:45.776Z,1.40
2019-01-03T21:57:13.235Z,1.40
2019-01-03T21:59:40.971Z,1.40
2019-01-03T22:02:08.755Z,1.40
2019-01-03T22:04:36.243Z,1.40
2019-01-03T22:07:03.621Z,1.40
2019-01-03T22:09:31.068Z,1.40
2019-01-03T22:11:58.599Z,1.40
2019-01-03T22:14:26.029Z,1.40
2019-01-03T22:16:54.388Z,1.40
2019-01-03T22:19:21.901Z,1.40
2019-01-03T22:21:49.416Z,1.40
2019-01-03T22:24:16.785Z,1.40
2019-01-03T22:26:44.768Z,1.40
2019-01-03T22:29:12.060Z,1.40
2019-01-03T22:31:39.535Z,1.40
2019-01-03T22:34:06.948Z,1.40
2019-01-03T22:36:34.302Z,1.40
2019-01-03T22:39:02.131Z,1.40
2019-01-03T22:41:30.570Z,1.40
2019-01-03T22:43:57.940Z,1.40
2019-01-03T22:46:25.552Z,1.40
2019-01-03T22:48:53.120Z,1.50
2019-01-03T22:51:20.486Z,1.50
2019-01-03T22:53:48.238Z,1.50
2019-01-03T22:56:15.626Z,1.50
2019-01-03T22:58:43.194Z,1.50
2019-01-03T23:01:11.021Z,1.40
2019-01-03T23:03:38.590Z,1.40
2019-01-03T23:06:05.990Z,1.40
2019-01-03T23:08:33.806Z,1.50
2019-01-03T23:11:01.196Z,1.50
2019-01-03T23:13:28.475Z,1.40
2019-01-03T23:15:56.791Z,1.50
2019-01-03T23:18:31.243Z,1.40
2019-01-03T23:20:53.579Z,1.50
2019-01-03T23:23:21.019Z,1.50
2019-01-03T23:25:48.702Z,1.50
2019-01-03T23:28:16.104Z,1.50
2019-01-03T23:30:43.903Z,1.50
2019-01-03T23:33:11.284Z,1.50
2019-01-03T23:35:38.666Z,1.50
2019-01-03T23:38:06.040Z,1.50
2019-01-03T23:40:33.917Z,1.50
2019-01-03T23:43:01.339Z,1.50
2019-01-03T23:45:29.313Z,1.50
2019-01-03T23:47:59.151Z,1.50
2019-01-03T23:50:28.872Z,1.50
2019-01-03T23:52:56.289Z,1.50
2019-01-03T23:55:23.985Z,1.40
2019-01-03T23:57:51.307Z,1.40
